Time,TemperatureF,DewpointF,PressureIn,WindDirection,WindDirectionDegrees,WindSpeedMPH,WindSpeedGustMPH,Humidity,HourlyPrecipIn,Conditions,Clouds,dailyrainin,SoftwareType,DateUTC
2013-11-20 00:04:00,21.3,9.0,28.62,NNW,327,9.7,-999.0,58,0.00,,,-99.99,,2013-11-20 09:04:00,
2013-11-20 00:09:00,21.6,9.2,28.61,NW,326,9.7,-999.0,58,0.00,,,-99.99,,2013-11-20 09:09:00,
2013-11-20 00:14:00,21.5,8.9,28.61,NNW,328,9.3,-999.0,57,0.00,,,-99.99,,2013-11-20 09:14:00,
2013-11-20 00:19:00,21.6,9.7,28.61,NNW,329,9.0,-999.0,59,0.00,,,-99.99,,2013-11-20 09:19:00,
2013-11-20 00:24:00,21.8,10.1,28.61,NNW,328,9.4,-999.0,60,0.00,,,-99.99,,2013-11-20 09:24:00,
2013-11-20 00:29:00,21.8,10.5,28.60,NNW,329,8.1,-999.0,61,0.00,,,-99.99,,2013-11-20 09:29:00,
2013-11-20 00:34:00,21.9,10.8,28.61,NNW,335,9.1,-999.0,61,0.00,,,-99.99,,2013-11-20 09:34:00,
2013-11-20 00:39:00,21.9,10.8,28.60,NNW,333,8.6,-999.0,61,0.00,,,-99.99,,2013-11-20 09:39:00,
2013-11-20 00:44:00,21.9,11.2,28.61,NW,325,9.4,-999.0,62,0.00,,,-99.99,,2013-11-20 09:44:00,
2013-11-20 00:49:00,21.8,11.1,28.60,NNW,333,8.8,-999.0,62,0.00,,,-99.99,,2013-11-20 09:49:00,
2013-11-20 00:54:00,22.1,10.8,28.61,NNW,330,9.2,-999.0,61,0.00,,,-99.99,,2013-11-20 09:54:00,
2013-11-20 00:59:00,22.3,10.9,28.60,NNW,329,9.4,-999.0,60,0.00,,,-99.99,,2013-11-20 09:59:00,
2013-11-20 01:04:00,22.7,10.9,28.61,NNW,330,9.2,-999.0,59,0.00,,,-99.99,,2013-11-20 10:04:00,
2013-11-20 01:09:00,22.7,10.8,28.60,NNW,336,8.8,-999.0,59,0.00,,,-99.99,,2013-11-20 10:09:00,
2013-11-20 01:14:00,22.1,11.2,28.60,NW,326,7.8,-999.0,62,0.00,,,-99.99,,2013-11-20 10:14:00,
2013-11-20 01:19:00,22.6,11.5,28.60,NNW,329,8.5,-999.0,62,0.00,,,-99.99,,2013-11-20 10:19:00,
2013-11-20 01:24:00,22.4,11.6,28.61,NNW,332,9.1,-999.0,62,0.00,,,-99.99,,2013-11-20 10:24:00,
2013-11-20 01:29:00,22.4,12.2,28.59,NNW,328,9.3,-999.0,64,0.00,,,-99.99,,2013-11-20 10:29:00,
2013-11-20 01:34:00,22.3,13.0,28.59,NW,321,9.2,-999.0,66,0.00,,,-99.99,,2013-11-20 10:34:00,
2013-11-20 01:39:00,22.4,13.1,28.60,NW,317,8.5,-999.0,66,0.00,,,-99.99,,2013-11-20 10:39:00,
2013-11-20 01:44:00,22.1,12.9,28.60,NW,313,9.2,-999.0,67,0.00,,,-99.99,,2013-11-20 10:44:00,
2013-11-20 01:49:00,21.9,13.6,28.59,NW,322,9.2,-999.0,70,0.00,,,-99.99,,2013-11-20 10:49:00,
2013-11-20 01:54:00,22.6,13.9,28.59,NW,319,10.8,-999.0,68,0.00,,,-99.99,,2013-11-20 10:54:00,
2013-11-20 01:59:00,22.3,14.0,28.59,NW,315,9.0,-999.0,69,0.00,,,-99.99,,2013-11-20 10:59:00,
2013-11-20 02:04:00,22.9,13.2,28.59,NNW,329,11.8,-999.0,66,0.00,,,-99.99,,2013-11-20 11:04:00,
2013-11-20 02:09:00,23.4,14.4,28.59,NW,325,13.7,-999.0,67,0.00,,,-99.99,,2013-11-20 11:09:00,
2013-11-20 02:14:00,23.1,14.2,28.59,NNW,330,11.4,-999.0,68,0.00,,,-99.99,,2013-11-20 11:14:00,
2013-11-20 02:19:00,23.2,14.8,28.59,NW,326,11.9,-999.0,69,0.00,,,-99.99,,2013-11-20 11:19:00,
2013-11-20 02:24:00,23.3,14.9,28.58,NNW,328,9.9,-999.0,69,0.00,,,-99.99,,2013-11-20 11:24:00,
2013-11-20 02:29:00,23.1,15.0,28.58,NNW,334,11.0,-999.0,70,0.00,,,-99.99,,2013-11-20 11:29:00,
2013-11-20 02:34:00,23.7,13.3,28.58,NNW,336,10.6,-999.0,64,0.00,,,-99.99,,2013-11-20 11:34:00,
2013-11-20 02:39:00,24.0,11.9,28.58,NNW,338,10.6,-999.0,59,0.00,,,-99.99,,2013-11-20 11:39:00,
2013-11-20 02:44:00,23.7,12.8,28.58,NNW,331,9.7,-999.0,62,0.00,,,-99.99,,2013-11-20 11:44:00,
2013-11-20 02:49:00,23.8,12.6,28.59,NNW,330,9.6,-999.0,61,0.00,,,-99.99,,2013-11-20 11:49:00,
2013-11-20 02:54:00,23.8,12.1,28.58,NNW,329,9.7,-999.0,60,0.00,,,-99.99,,2013-11-20 11:54:00,
2013-11-20 02:59:00,24.1,13.6,28.58,NW,324,9.6,-999.0,63,0.00,,,-99.99,,2013-11-20 11:59:00,
2013-11-20 03:04:00,23.7,13.1,28.58,NW,320,9.5,-999.0,63,0.00,,,-99.99,,2013-11-20 12:04:00,
2013-11-20 03:09:00,23.6,13.6,28.58,NW,324,8.7,-999.0,64,0.00,,,-99.99,,2013-11-20 12:09:00,
2013-11-20 03:14:00,23.8,13.8,28.58,NW,326,9.3,-999.0,65,0.00,,,-99.99,,2013-11-20 12:14:00,
2013-11-20 03:19:00,24.0,14.7,28.57,NNW,332,10.6,-999.0,67,0.00,,,-99.99,,2013-11-20 12:19:00,
2013-11-20 03:24:00,24.1,14.0,28.57,NW,326,11.9,-999.0,64,0.00,,,-99.99,,2013-11-20 12:24:00,
2013-11-20 03:29:00,24.1,14.1,28.57,NNW,327,10.7,-999.0,65,0.00,,,-99.99,,2013-11-20 12:29:00,
2013-11-20 03:34:00,24.1,14.3,28.58,WNW,296,7.7,-999.0,65,0.00,,,-99.99,,2013-11-20 12:34:00,
2013-11-20 03:39:00,23.6,14.7,28.58,NW,321,8.4,-999.0,68,0.00,,,-99.99,,2013-11-20 12:39:00,
2013-11-20 03:44:00,23.7,14.0,28.57,NW,325,9.2,-999.0,66,0.00,,,-99.99,,2013-11-20 12:44:00,
2013-11-20 03:49:00,24.0,13.9,28.56,NW,320,9.3,-999.0,65,0.00,,,-99.99,,2013-11-20 12:49:00,
2013-11-20 03:54:00,23.9,14.0,28.56,NW,321,10.4,-999.0,65,0.00,,,-99.99,,2013-11-20 12:54:00,
2013-11-20 03:59:00,23.9,14.1,28.56,NW,322,10.5,-999.0,65,0.00,,,-99.99,,2013-11-20 12:59:00,
2013-11-20 04:04:00,24.4,14.9,28.57,WNW,298,14.1,-999.0,66,0.00,,,-99.99,,2013-11-20 13:04:00,
2013-11-20 04:09:00,24.2,14.6,28.57,NW,318,10.5,-999.0,66,0.00,,,-99.99,,2013-11-20 13:09:00,
2013-11-20 04:14:00,24.1,14.3,28.56,NW,325,8.9,-999.0,65,0.00,,,-99.99,,2013-11-20 13:14:00,
2013-11-20 04:19:00,24.6,13.8,28.55,NW,322,9.6,-999.0,63,0.00,,,-99.99,,2013-11-20 13:19:00,
2013-11-20 04:24:00,24.8,13.5,28.55,NW,319,10.3,-999.0,61,0.00,,,-99.99,,2013-11-20 13:24:00,
2013-11-20 04:29:00,24.7,13.5,28.55,NW,313,8.9,-999.0,62,0.00,,,-99.99,,2013-11-20 13:29:00,
2013-11-20 04:34:00,24.7,13.0,28.55,NW,314,11.8,-999.0,60,0.00,,,-99.99,,2013-11-20 13:34:00,
2013-11-20 04:39:00,24.5,12.9,28.55,NW,316,10.8,-999.0,60,0.00,,,-99.99,,2013-11-20 13:39:00,
2013-11-20 04:44:00,24.7,12.7,28.54,NW,323,10.3,-999.0,59,0.00,,,-99.99,,2013-11-20 13:44:00,
2013-11-20 04:49:00,24.8,14.0,28.55,NW,318,10.4,-999.0,63,0.00,,,-99.99,,2013-11-20 13:49:00,
2013-11-20 04:54:00,25.2,14.8,28.54,NW,318,10.9,-999.0,64,0.00,,,-99.99,,2013-11-20 13:54:00,
2013-11-20 04:59:00,25.3,14.6,28.55,NW,317,11.3,-999.0,63,0.00,,,-99.99,,2013-11-20 13:59:00,
2013-11-20 05:04:00,25.2,14.4,28.56,NW,315,12.7,-999.0,63,0.00,,,-99.99,,2013-11-20 14:04:00,
2013-11-20 05:09:00,25.0,15.5,28.54,NW,323,13.7,-999.0,66,0.00,,,-99.99,,2013-11-20 14:09:00,
2013-11-20 05:14:00,25.0,15.2,28.54,NW,325,10.9,-999.0,65,0.00,,,-99.99,,2013-11-20 14:14:00,
2013-11-20 05:19:00,24.9,14.9,28.53,NW,322,10.9,-999.0,65,0.00,,,-99.99,,2013-11-20 14:19:00,
2013-11-20 05:24:00,25.0,14.5,28.53,NW,316,11.3,-999.0,64,0.00,,,-99.99,,2013-11-20 14:24:00,
2013-11-20 05:29:00,25.3,13.9,28.54,NW,325,10.6,-999.0,61,0.00,,,-99.99,,2013-11-20 14:29:00,
2013-11-20 05:34:00,25.2,12.2,28.54,NW,317,11.8,-999.0,57,0.00,,,-99.99,,2013-11-20 14:34:00,
2013-11-20 05:39:00,25.2,13.5,28.53,NNW,328,10.5,-999.0,60,0.00,,,-99.99,,2013-11-20 14:39:00,
2013-11-20 05:44:00,25.3,13.5,28.52,NW,320,9.8,-999.0,60,0.00,,,-99.99,,2013-11-20 14:44:00,
2013-11-20 05:49:00,25.2,13.2,28.53,NW,321,10.3,-999.0,59,0.00,,,-99.99,,2013-11-20 14:49:00,
2013-11-20 05:54:00,25.5,11.4,28.53,NW,314,12.3,-999.0,54,0.00,,,-99.99,,2013-11-20 14:54:00,
2013-11-20 05:59:00,25.9,10.9,28.52,NW,313,11.5,-999.0,52,0.00,,,-99.99,,2013-11-20 14:59:00,
2013-11-20 06:04:00,25.8,10.1,28.52,NW,315,11.0,-999.0,50,0.00,,,-99.99,,2013-11-20 15:04:00,
2013-11-20 06:09:00,25.8,10.1,28.52,NW,309,10.8,-999.0,50,0.00,,,-99.99,,2013-11-20 15:09:00,
2013-11-20 06:14:00,25.8,10.0,28.52,NW,311,10.8,-999.0,50,0.00,,,-99.99,,2013-11-20 15:14:00,
2013-11-20 06:19:00,25.8,12.6,28.52,WNW,302,8.1,-999.0,57,0.00,,,-99.99,,2013-11-20 15:19:00,
2013-11-20 06:24:00,25.9,11.8,28.53,WNW,291,6.8,-999.0,54,0.00,,,-99.99,,2013-11-20 15:24:00,
2013-11-20 06:29:00,25.7,12.1,28.52,NNW,329,7.5,-999.0,55,0.00,,,-99.99,,2013-11-20 15:29:00,
2013-11-20 06:34:00,25.6,11.5,28.53,NW,315,7.7,-999.0,54,0.00,,,-99.99,,2013-11-20 15:34:00,
2013-11-20 06:39:00,25.8,11.4,28.52,WNW,303,7.7,-999.0,53,0.00,,,-99.99,,2013-11-20 15:39:00,
2013-11-20 06:44:00,25.5,11.4,28.51,NW,308,9.1,-999.0,54,0.00,,,-99.99,,2013-11-20 15:44:00,
2013-11-20 06:49:00,25.4,11.4,28.51,NW,307,7.4,-999.0,54,0.00,,,-99.99,,2013-11-20 15:49:00,
2013-11-20 06:54:00,25.6,11.7,28.52,NW,316,7.1,-999.0,54,0.00,,,-99.99,,2013-11-20 15:54:00,
2013-11-20 06:59:00,25.8,13.4,28.51,NW,316,7.7,-999.0,58,0.00,,,-99.99,,2013-11-20 15:59:00,
2013-11-20 07:04:00,25.7,14.0,28.52,NW,315,6.3,-999.0,60,0.00,,,-99.99,,2013-11-20 16:04:00,
2013-11-20 07:09:00,25.7,16.4,28.50,West,267,2.7,-999.0,67,0.00,,,-99.99,,2013-11-20 16:09:00,
2013-11-20 07:14:00,25.6,15.5,28.49,NNW,333,0.4,-999.0,65,0.00,,,-99.99,,2013-11-20 16:14:00,
2013-11-20 07:19:00,25.6,15.5,28.50,WSW,244,1.5,-999.0,64,0.00,,,-99.99,,2013-11-20 16:19:00,
2013-11-20 07:24:00,25.5,15.1,28.52,WNW,292,6.8,-999.0,64,0.00,,,-99.99,,2013-11-20 16:24:00,
2013-11-20 07:29:00,25.5,13.7,28.50,WNW,300,4.0,-999.0,60,0.00,,,-99.99,,2013-11-20 16:29:00,
2013-11-20 07:34:00,25.2,14.0,28.50,WSW,250,2.6,-999.0,62,0.00,,,-99.99,,2013-11-20 16:34:00,
2013-11-20 07:39:00,25.4,13.8,28.48,WNW,293,3.8,-999.0,61,0.00,,,-99.99,,2013-11-20 16:39:00,
2013-11-20 07:44:00,25.2,12.9,28.49,West,281,3.3,-999.0,59,0.00,,,-99.99,,2013-11-20 16:44:00,
2013-11-20 07:49:00,25.2,13.5,28.50,West,263,0.2,-999.0,60,0.00,,,-99.99,,2013-11-20 16:49:00,
2013-11-20 07:54:00,25.0,13.4,28.50,SW,215,0.1,-999.0,60,0.00,,,-99.99,,2013-11-20 16:54:00,
2013-11-20 07:59:00,25.3,12.8,28.50,WSW,258,2.2,-999.0,58,0.00,,,-99.99,,2013-11-20 16:59:00,
2013-11-20 08:04:00,25.5,13.7,28.49,WSW,251,0.2,-999.0,60,0.00,,,-99.99,,2013-11-20 17:04:00,
2013-11-20 08:09:00,25.3,14.1,28.50,WNW,296,0.9,-999.0,62,0.00,,,-99.99,,2013-11-20 17:09:00,
2013-11-20 08:15:00,25.5,14.1,28.48,West,265,1.2,-999.0,61,0.00,,,-99.99,,2013-11-20 17:15:00,
2013-11-20 08:20:00,25.4,13.6,28.49,WSW,247,0.5,-999.0,60,0.00,,,-99.99,,2013-11-20 17:20:00,
2013-11-20 08:25:00,25.4,13.0,28.48,West,271,2.1,-999.0,58,0.00,,,-99.99,,2013-11-20 17:25:00,
2013-11-20 08:30:00,25.4,12.9,28.48,WSW,255,2.2,-999.0,58,0.00,,,-99.99,,2013-11-20 17:30:00,
2013-11-20 08:35:00,25.3,13.2,28.48,WSW,257,2.8,-999.0,59,0.00,,,-99.99,,2013-11-20 17:35:00,
2013-11-20 08:40:00,25.3,15.2,28.48,West,263,3.4,-999.0,65,0.00,,,-99.99,,2013-11-20 17:40:00,
2013-11-20 08:45:00,25.0,17.4,28.48,WSW,244,1.7,-999.0,72,0.00,,,-99.99,,2013-11-20 17:45:00,
2013-11-20 08:50:00,24.6,18.1,28.47,WSW,239,0.0,-999.0,76,0.00,,,-99.99,,2013-11-20 17:50:00,
2013-11-20 08:55:00,24.5,18.5,28.48,SSE,151,1.0,-999.0,77,0.00,,,-99.99,,2013-11-20 17:55:00,
2013-11-20 09:01:00,23.3,18.1,28.47,SE,138,1.5,-999.0,80,0.00,,,-99.99,,2013-11-20 18:01:00,
2013-11-20 09:06:00,22.9,19.1,28.47,East,96,0.0,-999.0,85,0.00,,,-99.99,,2013-11-20 18:06:00,
2013-11-20 09:11:00,23.2,19.8,28.48,ENE,59,0.0,-999.0,86,0.00,,,-99.99,,2013-11-20 18:11:00,
2013-11-20 09:16:00,23.5,20.4,28.47,East,95,0.0,-999.0,87,0.00,,,-99.99,,2013-11-20 18:16:00,
2013-11-20 09:21:00,23.5,20.7,28.48,East,87,1.0,-999.0,88,0.00,,,-99.99,,2013-11-20 18:21:00,
2013-11-20 09:26:00,22.9,20.6,28.46,ESE,117,2.2,-999.0,90,0.00,,,-99.99,,2013-11-20 18:26:00,
2013-11-20 09:31:00,22.6,20.9,28.46,NE,44,1.5,-999.0,93,0.00,,,-99.99,,2013-11-20 18:31:00,
2013-11-20 09:36:00,23.0,21.6,28.46,ENE,62,0.7,-999.0,94,0.00,,,-99.99,,2013-11-20 18:36:00,
2013-11-20 09:41:00,22.8,21.4,28.46,ENE,75,0.0,-999.0,94,0.00,,,-99.99,,2013-11-20 18:41:00,
2013-11-20 09:46:00,24.0,22.9,28.47,SE,128,3.8,-999.0,95,0.00,,,-99.99,,2013-11-20 18:46:00,
2013-11-20 09:51:00,24.4,23.4,28.46,SE,132,6.4,-999.0,96,0.00,,,-99.99,,2013-11-20 18:51:00,
2013-11-20 09:56:00,24.6,23.8,28.44,SE,124,8.5,-999.0,96,0.00,,,-99.99,,2013-11-20 18:56:00,
2013-11-20 10:01:00,24.9,24.1,28.45,SE,130,9.2,-999.0,97,0.00,,,-99.99,,2013-11-20 19:01:00,
2013-11-20 10:06:00,24.9,24.2,28.44,SSE,148,10.3,-999.0,97,0.00,,,-99.99,,2013-11-20 19:06:00,
2013-11-20 10:11:00,24.9,24.2,28.45,SE,140,9.9,-999.0,97,0.00,,,-99.99,,2013-11-20 19:11:00,
2013-11-20 10:16:00,24.8,24.1,28.44,SE,145,9.2,-999.0,97,0.00,,,-99.99,,2013-11-20 19:16:00,
2013-11-20 10:21:00,24.9,24.2,28.45,SE,133,10.6,-999.0,97,0.00,,,-99.99,,2013-11-20 19:21:00,
2013-11-20 10:26:00,25.0,24.4,28.44,SE,141,10.3,-999.0,97,0.00,,,-99.99,,2013-11-20 19:26:00,
2013-11-20 10:31:00,25.2,24.5,28.43,SE,128,9.0,-999.0,97,0.00,,,-99.99,,2013-11-20 19:31:00,
2013-11-20 10:36:00,25.2,24.5,28.43,SE,137,10.0,-999.0,97,0.00,,,-99.99,,2013-11-20 19:36:00,
2013-11-20 10:41:00,25.4,24.8,28.44,SE,130,8.5,-999.0,97,0.00,,,-99.99,,2013-11-20 19:41:00,
2013-11-20 10:46:00,25.3,24.7,28.43,SE,146,10.2,-999.0,97,0.00,,,-99.99,,2013-11-20 19:46:00,
2013-11-20 10:51:00,25.4,24.7,28.43,SSE,156,9.1,-999.0,97,0.00,,,-99.99,,2013-11-20 19:51:00,
2013-11-20 10:56:00,25.4,24.7,28.43,South,173,7.6,-999.0,97,0.00,,,-99.99,,2013-11-20 19:56:00,
2013-11-20 11:01:00,25.6,25.0,28.43,South,181,9.2,-999.0,97,0.00,,,-99.99,,2013-11-20 20:01:00,
2013-11-20 11:06:00,25.6,25.0,28.44,South,183,9.4,-999.0,97,0.00,,,-99.99,,2013-11-20 20:06:00,
2013-11-20 11:11:00,25.8,25.2,28.43,South,177,13.8,-999.0,97,0.00,,,-99.99,,2013-11-20 20:11:00,
2013-11-20 11:16:00,25.9,25.3,28.42,SSE,159,11.1,-999.0,97,0.00,,,-99.99,,2013-11-20 20:16:00,
2013-11-20 11:21:00,26.0,25.4,28.41,SSE,161,10.6,-999.0,97,0.00,,,-99.99,,2013-11-20 20:21:00,
2013-11-20 11:26:00,26.2,25.6,28.41,South,179,17.8,-999.0,97,0.00,,,-99.99,,2013-11-20 20:26:00,
2013-11-20 11:31:00,26.2,25.7,28.42,South,179,18.1,-999.0,97,0.00,,,-99.99,,2013-11-20 20:31:00,
2013-11-20 11:36:00,26.4,25.8,28.42,SSE,167,15.3,-999.0,97,0.00,,,-99.99,,2013-11-20 20:36:00,
2013-11-20 11:41:00,26.4,25.9,28.42,SSE,166,17.6,-999.0,97,0.00,,,-99.99,,2013-11-20 20:41:00,
2013-11-20 11:46:00,26.4,25.9,28.40,SSE,161,17.8,-999.0,97,0.00,,,-99.99,,2013-11-20 20:46:00,
2013-11-20 11:51:00,26.5,25.9,28.40,SSE,157,20.6,-999.0,97,0.00,,,-99.99,,2013-11-20 20:51:00,
2013-11-20 11:56:00,26.3,25.7,28.40,SSE,163,20.3,-999.0,97,0.00,,,-99.99,,2013-11-20 20:56:00,
2013-11-20 12:01:00,26.5,25.9,28.41,SSE,157,24.4,-999.0,97,0.00,,,-99.99,,2013-11-20 21:01:00,
2013-11-20 12:06:00,26.1,25.5,28.40,SSE,156,21.4,-999.0,97,0.00,,,-99.99,,2013-11-20 21:06:00,
2013-11-20 12:11:00,26.0,25.4,28.39,SSE,163,25.0,-999.0,97,0.00,,,-99.99,,2013-11-20 21:11:00,
2013-11-20 12:16:00,26.2,25.7,28.38,SSE,149,21.4,-999.0,97,0.00,,,-99.99,,2013-11-20 21:16:00,
2013-11-20 12:21:00,26.1,25.6,28.39,SSE,155,22.5,-999.0,97,0.00,,,-99.99,,2013-11-20 21:21:00,
2013-11-20 12:26:00,26.4,25.9,28.37,SSE,155,18.6,-999.0,97,0.00,,,-99.99,,2013-11-20 21:26:00,
2013-11-20 12:31:00,26.6,26.1,28.38,SSE,167,19.2,-999.0,97,0.00,,,-99.99,,2013-11-20 21:31:00,
2013-11-20 12:36:00,26.4,25.9,28.38,SSE,159,21.8,-999.0,97,0.00,,,-99.99,,2013-11-20 21:36:00,
2013-11-20 12:41:00,26.3,25.8,28.38,SSE,148,22.0,-999.0,97,0.00,,,-99.99,,2013-11-20 21:41:00,
2013-11-20 12:46:00,26.3,25.7,28.36,SSE,160,28.1,-999.0,97,0.00,,,-99.99,,2013-11-20 21:46:00,
2013-11-20 12:51:00,26.6,26.0,28.37,SSE,149,20.3,-999.0,97,0.00,,,-99.99,,2013-11-20 21:51:00,
2013-11-20 12:56:00,26.7,26.2,28.37,SSE,157,27.8,-999.0,97,0.00,,,-99.99,,2013-11-20 21:56:00,
2013-11-20 13:01:00,26.7,26.1,28.37,SSE,157,23.7,-999.0,97,0.00,,,-99.99,,2013-11-20 22:01:00,
2013-11-20 13:06:00,26.5,26.0,28.38,SSE,156,26.4,-999.0,97,0.00,,,-99.99,,2013-11-20 22:06:00,
2013-11-20 13:11:00,26.7,26.1,28.35,SSE,155,22.7,-999.0,97,0.00,,,-99.99,,2013-11-20 22:11:00,
2013-11-20 13:16:00,26.8,26.3,28.35,SSE,161,24.5,-999.0,97,0.00,,,-99.99,,2013-11-20 22:16:00,
2013-11-20 13:21:00,26.8,26.3,28.36,SSE,152,20.3,-999.0,98,0.00,,,-99.99,,2013-11-20 22:21:00,
2013-11-20 13:26:00,27.0,26.5,28.37,South,179,27.4,-999.0,98,0.00,,,-99.99,,2013-11-20 22:26:00,
2013-11-20 13:31:00,26.9,26.3,28.36,SSE,159,26.4,-999.0,97,0.00,,,-99.99,,2013-11-20 22:31:00,
2013-11-20 13:36:00,26.8,26.3,28.36,SSE,158,27.5,-999.0,97,0.00,,,-99.99,,2013-11-20 22:36:00,
2013-11-20 13:41:00,26.6,26.1,28.34,SSE,149,28.5,-999.0,97,0.00,,,-99.99,,2013-11-20 22:41:00,
2013-11-20 13:46:00,26.7,26.2,28.34,South,174,28.2,-999.0,97,0.00,,,-99.99,,2013-11-20 22:46:00,
2013-11-20 13:51:00,26.9,26.4,28.33,SSE,168,22.1,-999.0,97,0.00,,,-99.99,,2013-11-20 22:51:00,
2013-11-20 13:56:00,26.5,25.9,28.34,SSE,162,27.3,-999.0,97,0.00,,,-99.99,,2013-11-20 22:56:00,
2013-11-20 14:01:00,26.6,26.0,28.34,SSE,167,20.4,-999.0,97,0.00,,,-99.99,,2013-11-20 23:01:00,
2013-11-20 14:06:00,26.6,26.1,28.34,SSE,152,19.9,-999.0,97,0.00,,,-99.99,,2013-11-20 23:06:00,
2013-11-20 14:11:00,26.6,26.1,28.33,South,178,23.9,-999.0,97,0.00,,,-99.99,,2013-11-20 23:11:00,
2013-11-20 14:16:00,26.7,26.2,28.34,SSE,159,29.1,-999.0,97,0.00,,,-99.99,,2013-11-20 23:16:00,
2013-11-20 14:21:00,27.3,26.8,28.34,SSE,158,22.4,-999.0,97,0.00,,,-99.99,,2013-11-20 23:21:00,
2013-11-20 14:26:00,26.9,26.4,28.33,SSE,161,28.9,-999.0,98,0.00,,,-99.99,,2013-11-20 23:26:00,
2013-11-20 14:31:00,26.6,26.0,28.33,SSE,149,35.0,-999.0,97,0.00,,,-99.99,,2013-11-20 23:31:00,
2013-11-20 14:36:00,26.4,25.9,28.32,SSE,160,25.2,-999.0,97,0.00,,,-99.99,,2013-11-20 23:36:00,
2013-11-20 14:41:00,26.6,26.0,28.32,SSE,163,23.2,-999.0,97,0.00,,,-99.99,,2013-11-20 23:41:00,
2013-11-20 14:46:00,26.6,26.0,28.31,SSE,167,21.0,-999.0,97,0.00,,,-99.99,,2013-11-20 23:46:00,
2013-11-20 14:51:00,26.7,26.2,28.32,South,172,23.6,-999.0,97,0.00,,,-99.99,,2013-11-20 23:51:00,
2013-11-20 14:56:00,26.7,26.1,28.32,SSE,160,29.1,-999.0,97,0.00,,,-99.99,,2013-11-20 23:56:00,
2013-11-20 15:01:00,26.6,26.1,28.32,SSE,167,20.7,-999.0,97,0.00,,,-99.99,,2013-11-21 00:01:00,
2013-11-20 15:06:00,26.6,26.1,28.31,SSE,159,25.2,-999.0,97,0.00,,,-99.99,,2013-11-21 00:06:00,
2013-11-20 15:11:00,26.9,26.4,28.31,SSE,151,25.0,-999.0,97,0.00,,,-99.99,,2013-11-21 00:11:00,
2013-11-20 15:16:00,27.0,26.5,28.31,SSE,153,22.8,-999.0,97,0.00,,,-99.99,,2013-11-21 00:16:00,
2013-11-20 15:21:00,26.9,26.4,28.32,SSE,154,23.9,-999.0,97,0.00,,,-99.99,,2013-11-21 00:21:00,
2013-11-20 15:26:00,26.9,26.4,28.31,SSE,147,18.1,-999.0,97,0.00,,,-99.99,,2013-11-21 00:26:00,
2013-11-20 15:31:00,26.8,26.3,28.30,South,184,20.8,-999.0,97,0.00,,,-99.99,,2013-11-21 00:31:00,
2013-11-20 15:36:00,27.0,26.5,28.30,South,176,20.5,-999.0,97,0.00,,,-99.99,,2013-11-21 00:36:00,
2013-11-20 15:41:00,27.1,26.6,28.31,South,170,21.0,-999.0,98,0.00,,,-99.99,,2013-11-21 00:41:00,
2013-11-20 15:46:00,27.0,26.6,28.31,SSE,154,19.5,-999.0,98,0.00,,,-99.99,,2013-11-21 00:46:00,
2013-11-20 15:51:00,27.0,26.6,28.31,SSE,163,23.6,-999.0,98,0.00,,,-99.99,,2013-11-21 00:51:00,
2013-11-20 15:56:00,27.2,26.7,28.31,South,183,18.9,-999.0,98,0.00,,,-99.99,,2013-11-21 00:56:00,
2013-11-20 16:01:00,27.3,26.9,28.30,South,187,20.2,-999.0,98,0.00,,,-99.99,,2013-11-21 01:01:00,
2013-11-20 16:06:00,27.2,26.7,28.29,SSE,167,27.5,-999.0,97,0.00,,,-99.99,,2013-11-21 01:06:00,
2013-11-20 16:11:00,27.1,26.6,28.28,South,181,24.1,-999.0,98,0.00,,,-99.99,,2013-11-21 01:11:00,
2013-11-20 16:16:00,27.2,26.7,28.30,South,169,22.0,-999.0,98,0.00,,,-99.99,,2013-11-21 01:16:00,
2013-11-20 16:21:00,27.4,27.0,28.29,South,174,19.7,-999.0,98,0.00,,,-99.99,,2013-11-21 01:21:00,
2013-11-20 16:26:00,27.3,26.9,28.29,South,181,22.8,-999.0,98,0.00,,,-99.99,,2013-11-21 01:26:00,
2013-11-20 16:31:00,27.3,26.8,28.29,South,187,16.4,-999.0,98,0.00,,,-99.99,,2013-11-21 01:31:00,
2013-11-20 16:36:00,27.0,26.5,28.30,South,176,23.1,-999.0,98,0.00,,,-99.99,,2013-11-21 01:36:00,
2013-11-20 16:41:00,27.4,27.0,28.30,South,182,23.7,-999.0,98,0.00,,,-99.99,,2013-11-21 01:41:00,
2013-11-20 16:46:00,27.4,27.0,28.30,South,176,24.9,-999.0,98,0.00,,,-99.99,,2013-11-21 01:46:00,
2013-11-20 16:51:00,27.6,27.1,28.29,South,174,19.8,-999.0,98,0.00,,,-99.99,,2013-11-21 01:51:00,
2013-11-20 16:56:00,27.6,27.2,28.30,South,178,19.5,-999.0,98,0.00,,,-99.99,,2013-11-21 01:56:00,
2013-11-20 17:01:00,27.7,27.3,28.30,South,175,16.0,-999.0,98,0.00,,,-99.99,,2013-11-21 02:01:00,
2013-11-20 17:06:00,27.8,27.3,28.29,SSE,168,20.6,-999.0,98,0.00,,,-99.99,,2013-11-21 02:06:00,
2013-11-20 17:11:00,27.9,27.5,28.29,South,173,18.3,-999.0,98,0.00,,,-99.99,,2013-11-21 02:11:00,
2013-11-20 17:16:00,27.8,27.4,28.30,South,177,18.9,-999.0,98,0.00,,,-99.99,,2013-11-21 02:16:00,
2013-11-20 17:21:00,28.1,27.7,28.29,South,186,19.6,-999.0,98,0.00,,,-99.99,,2013-11-21 02:21:00,
2013-11-20 17:26:00,28.4,28.0,28.29,South,184,21.4,-999.0,98,0.00,,,-99.99,,2013-11-21 02:26:00,
2013-11-20 17:31:00,28.2,27.8,28.27,South,170,27.0,-999.0,98,0.00,,,-99.99,,2013-11-21 02:31:00,
2013-11-20 17:36:00,28.3,27.9,28.28,South,171,23.3,-999.0,98,0.00,,,-99.99,,2013-11-21 02:36:00,
2013-11-20 17:41:00,28.6,28.2,28.30,South,178,16.3,-999.0,98,0.00,,,-99.99,,2013-11-21 02:41:00,
2013-11-20 17:46:00,28.5,28.1,28.29,South,188,21.2,-999.0,98,0.00,,,-99.99,,2013-11-21 02:46:00,
2013-11-20 17:51:00,28.7,28.4,28.29,South,187,12.9,-999.0,98,0.00,,,-99.99,,2013-11-21 02:51:00,
2013-11-20 17:56:00,28.5,28.1,28.28,South,182,24.8,-999.0,98,0.00,,,-99.99,,2013-11-21 02:56:00,
2013-11-20 18:01:00,28.7,28.4,28.27,SSW,192,43.0,-999.0,98,0.00,,,-99.99,,2013-11-21 03:01:00,
2013-11-20 18:06:00,28.8,28.5,28.28,SSW,193,40.5,-999.0,98,0.00,,,-99.99,,2013-11-21 03:06:00,
2013-11-20 18:11:00,28.7,28.3,28.26,South,179,32.9,-999.0,98,0.00,,,-99.99,,2013-11-21 03:11:00,
2013-11-20 18:16:00,28.4,28.1,28.26,South,183,39.4,-999.0,98,0.00,,,-99.99,,2013-11-21 03:16:00,
2013-11-20 18:21:00,28.4,28.1,28.27,South,181,31.7,-999.0,98,0.00,,,-99.99,,2013-11-21 03:21:00,
2013-11-20 18:26:00,28.4,28.1,28.29,South,185,32.2,-999.0,98,0.00,,,-99.99,,2013-11-21 03:26:00,
2013-11-20 18:31:00,28.2,27.8,28.26,South,183,33.6,-999.0,98,0.00,,,-99.99,,2013-11-21 03:31:00,
2013-11-20 18:36:00,28.2,27.8,28.28,South,182,32.8,-999.0,98,0.00,,,-99.99,,2013-11-21 03:36:00,
2013-11-20 18:41:00,28.0,27.6,28.27,South,180,34.8,-999.0,98,0.00,,,-99.99,,2013-11-21 03:41:00,
2013-11-20 18:46:00,28.2,27.8,28.27,South,179,32.0,-999.0,98,0.00,,,-99.99,,2013-11-21 03:46:00,
2013-11-20 18:51:00,28.0,27.6,28.25,South,190,43.0,-999.0,98,0.00,,,-99.99,,2013-11-21 03:51:00,
2013-11-20 18:56:00,27.8,27.4,28.28,SSW,197,43.4,-999.0,98,0.00,,,-99.99,,2013-11-21 03:56:00,
2013-11-20 19:01:00,28.0,27.6,28.27,South,185,30.6,-999.0,98,0.00,,,-99.99,,2013-11-21 04:01:00,
2013-11-20 19:06:00,28.0,27.5,28.26,South,186,37.5,-999.0,98,0.00,,,-99.99,,2013-11-21 04:06:00,
2013-11-20 19:11:00,27.8,27.4,28.30,South,188,37.5,-999.0,98,0.00,,,-99.99,,2013-11-21 04:11:00,
2013-11-20 19:16:00,27.7,27.3,28.28,South,171,42.5,-999.0,98,0.00,,,-99.99,,2013-11-21 04:16:00,
2013-11-20 19:21:00,27.6,27.1,28.28,South,177,31.9,-999.0,98,0.00,,,-99.99,,2013-11-21 04:21:00,
2013-11-20 19:26:00,27.5,27.1,28.28,South,182,39.1,-999.0,98,0.00,,,-99.99,,2013-11-21 04:26:00,
2013-11-20 19:31:00,27.6,27.2,28.28,South,188,26.4,-999.0,98,0.00,,,-99.99,,2013-11-21 04:31:00,
2013-11-20 19:36:00,27.5,27.1,28.28,South,177,38.4,-999.0,98,0.00,,,-99.99,,2013-11-21 04:36:00,
2013-11-20 19:41:00,27.2,26.7,28.27,South,190,31.0,-999.0,98,0.00,,,-99.99,,2013-11-21 04:41:00,
2013-11-20 19:46:00,27.3,26.8,28.27,SSE,167,29.9,-999.0,98,0.00,,,-99.99,,2013-11-21 04:46:00,
2013-11-20 19:51:00,27.0,26.6,28.27,South,183,37.7,-999.0,98,0.00,,,-99.99,,2013-11-21 04:51:00,
2013-11-20 19:56:00,27.2,26.8,28.28,South,180,34.2,-999.0,98,0.00,,,-99.99,,2013-11-21 04:56:00,
2013-11-20 20:01:00,27.3,26.9,28.30,SSE,168,32.3,-999.0,98,0.00,,,-99.99,,2013-11-21 05:01:00,
2013-11-20 20:02:00,27.2,26.8,28.30,South,172,32.0,-999.0,98,0.00,,,-99.99,,2013-11-21 05:02:00,
2013-11-20 20:03:00,27.2,26.7,28.30,South,182,36.0,-999.0,98,0.00,,,-99.99,,2013-11-21 05:03:00,
2013-11-20 20:05:00,26.9,26.4,28.28,South,185,28.5,-999.0,98,0.00,,,-99.99,,2013-11-21 05:05:00,
2013-11-20 20:10:00,26.9,26.4,28.28,SSE,160,35.1,-999.0,98,0.00,,,-99.99,,2013-11-21 05:10:00,
2013-11-20 20:11:00,26.9,26.5,28.28,South,182,38.5,-999.0,98,0.00,,,-99.99,,2013-11-21 05:11:00,
2013-11-20 20:12:00,26.8,26.3,28.28,SSE,166,32.8,-999.0,98,0.00,,,-99.99,,2013-11-21 05:12:00,
2013-11-20 20:13:00,26.9,26.5,28.28,SSE,162,32.0,-999.0,98,0.00,,,-99.99,,2013-11-21 05:13:00,
2013-11-20 20:18:00,27.0,26.6,28.28,South,174,34.1,-999.0,98,0.00,,,-99.99,,2013-11-21 05:18:00,
2013-11-20 20:23:00,27.1,26.6,28.29,SSE,167,35.0,-999.0,98,0.00,,,-99.99,,2013-11-21 05:23:00,
2013-11-20 20:28:00,27.1,26.6,28.28,South,174,33.1,-999.0,98,0.00,,,-99.99,,2013-11-21 05:28:00,
2013-11-20 20:33:00,27.0,26.5,28.29,South,171,39.2,-999.0,98,0.01,,,-99.99,,2013-11-21 05:33:00,
2013-11-20 20:38:00,26.8,26.3,28.28,SSE,168,31.8,-999.0,98,0.00,,,-99.99,,2013-11-21 05:38:00,
2013-11-20 20:43:00,26.8,26.3,28.29,South,178,36.2,-999.0,98,0.00,,,-99.99,,2013-11-21 05:43:00,
2013-11-20 20:48:00,26.9,26.4,28.28,SSE,158,28.7,-999.0,98,0.00,,,-99.99,,2013-11-21 05:48:00,
2013-11-20 20:53:00,26.8,26.3,28.29,South,179,36.6,-999.0,98,0.00,,,-99.99,,2013-11-21 05:53:00,
2013-11-20 20:58:00,26.9,26.4,28.27,South,171,39.0,-999.0,98,0.01,,,-99.99,,2013-11-21 05:58:00,
2013-11-20 20:59:00,26.9,26.4,28.27,South,182,34.3,-999.0,98,0.00,,,-99.99,,2013-11-21 05:59:00,
2013-11-20 21:04:00,26.9,26.4,28.28,SSE,160,28.8,-999.0,97,0.00,,,-99.99,,2013-11-21 06:04:00,
2013-11-20 21:09:00,26.7,26.2,28.30,SSE,155,40.6,-999.0,97,0.02,,,-99.99,,2013-11-21 06:09:00,
2013-11-20 21:14:00,26.7,26.2,28.27,SSE,161,33.0,-999.0,98,0.00,,,-99.99,,2013-11-21 06:14:00,
2013-11-20 21:19:00,26.5,26.0,28.30,SSE,161,36.6,-999.0,97,0.03,,,-99.99,,2013-11-21 06:19:00,
2013-11-20 21:24:00,26.6,26.0,28.28,SSE,166,46.2,-999.0,97,0.00,,,-99.99,,2013-11-21 06:24:00,
2013-11-20 21:29:00,26.6,26.0,28.28,South,176,39.9,-999.0,97,0.00,,,-99.99,,2013-11-21 06:29:00,
2013-11-20 21:34:00,26.7,26.2,28.28,SSE,161,33.3,-999.0,97,0.00,,,-99.99,,2013-11-21 06:34:00,
2013-11-20 21:39:00,26.5,26.0,28.29,SE,145,35.2,-999.0,97,0.00,,,-99.99,,2013-11-21 06:39:00,
2013-11-20 21:44:00,26.5,26.0,28.30,SSE,151,26.3,-999.0,97,0.00,,,-99.99,,2013-11-21 06:44:00,
2013-11-20 21:49:00,26.6,26.1,28.28,SSE,157,40.3,-999.0,97,0.00,,,-99.99,,2013-11-21 06:49:00,
2013-11-20 21:54:00,26.4,25.9,28.28,South,184,39.6,-999.0,97,0.00,,,-99.99,,2013-11-21 06:54:00,
2013-11-20 21:59:00,26.6,26.1,28.30,South,172,33.2,-999.0,97,0.00,,,-99.99,,2013-11-21 06:59:00,
2013-11-20 22:04:00,26.6,26.1,28.29,South,169,34.5,-999.0,98,0.00,,,-99.99,,2013-11-21 07:04:00,
2013-11-20 22:09:00,26.7,26.2,28.29,South,180,37.6,-999.0,97,0.00,,,-99.99,,2013-11-21 07:09:00,
2013-11-20 22:14:00,26.6,26.1,28.27,SSE,152,38.8,-999.0,97,0.00,,,-99.99,,2013-11-21 07:14:00,
2013-11-20 22:19:00,26.8,26.3,28.29,South,180,28.0,-999.0,98,0.00,,,-99.99,,2013-11-21 07:19:00,
2013-11-20 22:24:00,26.7,26.2,28.28,South,169,36.3,-999.0,98,0.00,,,-99.99,,2013-11-21 07:24:00,
2013-11-20 22:29:00,27.0,26.5,28.29,South,169,37.0,-999.0,97,0.00,,,-99.99,,2013-11-21 07:29:00,
2013-11-20 22:34:00,26.6,26.0,28.29,South,180,31.5,-999.0,97,0.00,,,-99.99,,2013-11-21 07:34:00,
2013-11-20 22:39:00,26.6,26.1,28.29,SSE,162,36.8,-999.0,97,0.00,,,-99.99,,2013-11-21 07:39:00,
2013-11-20 22:44:00,26.4,25.9,28.27,SSE,155,31.9,-999.0,97,0.00,,,-99.99,,2013-11-21 07:44:00,
2013-11-20 22:49:00,26.5,26.0,28.28,SSE,165,41.5,-999.0,97,0.01,,,-99.99,,2013-11-21 07:49:00,
2013-11-20 22:54:00,26.7,26.1,28.29,SSE,157,37.8,-999.0,97,0.00,,,-99.99,,2013-11-21 07:54:00,
2013-11-20 22:59:00,26.4,25.9,28.29,South,172,34.0,-999.0,97,0.00,,,-99.99,,2013-11-21 07:59:00,
2013-11-20 23:04:00,26.7,26.2,28.29,SSE,150,36.8,-999.0,98,0.00,,,-99.99,,2013-11-21 08:04:00,
2013-11-20 23:09:00,26.7,26.2,28.28,SSE,165,36.4,-999.0,97,0.00,,,-99.99,,2013-11-21 08:09:00,
2013-11-20 23:14:00,26.7,26.2,28.29,SSE,168,42.2,-999.0,97,0.00,,,-99.99,,2013-11-21 08:14:00,
2013-11-20 23:19:00,26.9,26.4,28.28,SSE,167,33.7,-999.0,97,0.00,,,-99.99,,2013-11-21 08:19:00,
2013-11-20 23:24:00,27.0,26.5,28.30,South,177,32.7,-999.0,97,0.00,,,-99.99,,2013-11-21 08:24:00,
2013-11-20 23:29:00,26.9,26.4,28.30,South,170,35.4,-999.0,97,0.00,,,-99.99,,2013-11-21 08:29:00,
2013-11-20 23:34:00,26.9,26.3,28.30,SSE,160,39.8,-999.0,97,0.00,,,-99.99,,2013-11-21 08:34:00,
2013-11-20 23:39:00,27.0,26.6,28.29,SSE,153,29.2,-999.0,98,0.00,,,-99.99,,2013-11-21 08:39:00,
2013-11-20 23:44:00,26.9,26.4,28.31,SSE,164,27.8,-999.0,98,0.00,,,-99.99,,2013-11-21 08:44:00,
2013-11-20 23:49:00,26.9,26.4,28.29,SSE,148,28.5,-999.0,97,0.00,,,-99.99,,2013-11-21 08:49:00,
2013-11-20 23:54:00,26.8,26.3,28.30,SSE,152,29.1,-999.0,97,0.00,,,-99.99,,2013-11-21 08:54:00,
2013-11-20 23:59:00,26.9,26.4,28.30,SSE,164,34.2,-999.0,98,0.00,,,-99.99,,2013-11-21 08:59:00,